UHPP Airport Information

Runway Information
Runway 12 Length 735 ft width 50 ft
Elevation 0 ft Threshold 0 ft Heading 118
Runway 30 Length 735 ft Width 50 ft
Elevation 0 ft Threshold 0 ft Heading 298
Runway 16L Length 11155 ft width 197 ft
Elevation 112 ft Threshold 0 ft Heading 157
Runway 34R Length 11155 ft Width 197 ft
Elevation 131 ft Threshold 0 ft Heading 337
Runway 16R Length 8235 ft width 197 ft
Elevation 0 ft Threshold 0 ft Heading 157
Runway 34L Length 8235 ft Width 197 ft
Elevation 0 ft Threshold 0 ft Heading 337
Airport Frequencies
Type ARSA Name PETROPAVLO Frequency 119.4 MHZ
Type TWR Name PETROPAVLO Frequency 118.1 MHZ
Airport Navaids
Type NDB Name Petropavlovsk-Kamchatsky Frequency 535 KHZ
Airport Weather Information & NOTAM
ADDS - METARS form results

(2215 UTC 19 September 2018)
Data provider http://aviationweather.gov/metar/data/
 
METAR text: UHPP 192200Z 00000MPS 9999 FEW020CB 11/09 Q1005 R34L/290155 NOSIG RMK MT OBSC QFE750/1000
Conditions at: UHPP (PETROPAVLOVSK-KA, RU) observed 2200 UTC 19 September 2018
Temperature: 11.0°C (52°F)
Dewpoint: 9.0°C (48°F) [RH = 87%]
Pressure (altimeter): 29.68 inches Hg (1005.0 mb)
Winds: calm
Visibility: 6 or more miles (10+ km)
Ceiling: at least 12,000 feet AGL
Clouds: few clouds at 2000 feet AGL
Weather: no significant weather observed at this time

METAR text: UHPP 192130Z 35002MPS 320V050 9999 FEW020CB 09/08 Q1005 R34L/290155 NOSIG RMK MT OBSC QFE750/1000
Conditions at: UHPP (PETROPAVLOVSK-KA, RU) observed 2130 UTC 19 September 2018
Temperature: 9.0°C (48°F)
Dewpoint: 8.0°C (46°F) [RH = 93%]
Pressure (altimeter): 29.68 inches Hg (1005.0 mb)
Winds: from the N (350 degrees) at 5 MPH (4 knots; 2.1 m/s)
Visibility: 6 or more miles (10+ km)
Ceiling: at least 12,000 feet AGL
Clouds: few clouds at 2000 feet AGL
Weather: no significant weather observed at this time

Forecast for: UHPP (PETROPAVLOVSK-KA, RU)
Text: TAF UHPP 191951Z 1921/2103 19003G12MPS 9999 BKN020CB OVC040
Forecast period: 2100 UTC 19 September 2018 to 0300 UTC 21 September 2018
Forecast type: FROM: standard forecast or significant change
Winds: from the S (190 degrees) at 7 MPH (6 knots; 3.1 m/s)
gusting to 26 MPH (23 knots; 11.8 m/s)
Visibility: 6 or more miles 10+ km)
Ceiling: 2000 feet AGL
Clouds: broken clouds at 2000 feet AGL
overcast cloud deck at 4000 feet AGL
Weather: no significant weather forecast for this period
Text: TEMPO 1923/2103 36003G08MPS 2000 SHRA BR BKN005 OVC015CB
Forecast period: 2300 UTC 19 September 2018 to 0300 UTC 21 September 2018
Forecast type: TEMPORARY: The following changes expected for less than half the time period
Winds: from the N (360 degrees) at 7 MPH (6 knots; 3.1 m/s)
gusting to 18 MPH (16 knots; 8.2 m/s)
Visibility: 1.24 miles (2.00 km)
Ceiling: 500 feet AGL
Clouds: broken clouds at 500 feet AGL
overcast cloud deck at 1500 feet AGL
Weather: SHRA BR  (rain showers, mist)